Time;durP1;ratioP1;P1;durP2;ratioP2;P2;SDS_P1;SDS_P2;PMS_P1;PMS_P2;Temp;Humidity;BMP_temperature;BMP_pressure;BME280_temperature;BME280_humidity;BME280_pressure;Samples;Min_cycle;Max_cycle;Signal;HPM_P1;HPM_P2
2022/08/23 00:02:09;;;;;;;20.68;10.35;;;;;;;22.24;78.16;100602.09;1753685;81;25820;-59
2022/08/23 00:04:40;;;;;;;20.50;9.63;;;;;;;22.25;78.44;100605.98;1762090;81;26723;-60
2022/08/23 00:07:11;;;;;;;21.02;9.25;;;;;;;22.31;78.71;100605.12;1754611;81;25764;-59
2022/08/23 00:09:39;;;;;;;32.67;10.10;;;;;;;22.34;78.38;100601.11;1751218;80;28253;-59
2022/08/23 00:12:14;;;;;;;24.92;7.58;;;;;;;22.33;78.41;100598.05;1748584;80;25701;-60
2022/08/23 00:14:46;;;;;;;25.82;7.37;;;;;;;22.34;78.44;100603.84;1732531;81;25670;-59
2022/08/23 00:17:13;;;;;;;17.77;8.18;;;;;;;22.36;78.60;100608.59;1743197;81;25860;-60
2022/08/23 00:19:41;;;;;;;21.33;8.60;;;;;;;22.37;78.54;100604.76;1795937;79;25692;-60
2022/08/23 00:22:10;;;;;;;25.17;7.90;;;;;;;22.38;78.70;100598.22;1786722;79;27474;-60
2022/08/23 00:24:38;;;;;;;21.12;7.87;;;;;;;22.36;78.71;100607.22;1804559;79;25758;-59
2022/08/23 00:27:10;;;;;;;19.87;7.83;;;;;;;22.37;78.69;100612.98;1800446;79;25450;-60
2022/08/23 00:29:48;;;;;;;18.27;6.40;;;;;;;22.40;78.91;100612.59;1808807;78;26536;-59
2022/08/23 00:32:23;;;;;;;17.10;5.90;;;;;;;22.40;78.82;100612.59;1792531;77;25767;-59
2022/08/23 00:34:50;;;;;;;20.90;8.15;;;;;;;22.42;78.85;100617.84;1771095;80;27614;-60
2022/08/23 00:37:18;;;;;;;21.40;6.83;;;;;;;22.41;78.67;100614.27;1770243;80;26142;-60
2022/08/23 00:39:46;;;;;;;34.23;6.87;;;;;;;22.39;78.55;100612.23;1781597;79;25663;-60
2022/08/23 00:49:12;;;;;;;16.73;5.50;;;;;;;22.36;78.43;100614.06;1803349;78;27474;-60
2022/08/23 00:52:08;;;;;;;9.30;5.60;;;;;;;22.29;78.49;100614.09;1773091;79;25716;-59
2022/08/23 00:54:37;;;;;;;14.28;4.55;;;;;;;22.28;78.67;100604.70;1771970;79;25696;-59
2022/08/23 00:57:10;;;;;;;13.38;4.90;;;;;;;22.28;78.67;100611.55;1768050;80;25815;-60
2022/08/23 00:59:37;;;;;;;13.80;4.87;;;;;;;22.25;78.65;100614.20;1731366;81;25641;-59
2022/08/23 01:02:04;;;;;;;15.85;5.15;;;;;;;22.17;78.70;100617.19;1729406;80;28338;-59
2022/08/23 01:04:36;;;;;;;16.07;5.45;;;;;;;22.12;78.73;100619.20;1730023;81;25488;-60
2022/08/23 01:07:25;;;;;;;17.10;5.20;;;;;;;22.12;79.05;100619.75;1730816;81;25708;-60
2022/08/23 01:09:57;;;;;;;11.15;5.03;;;;;;;22.15;79.33;100627.52;1793506;79;25813;-60
2022/08/23 01:12:32;;;;;;;20.32;5.12;;;;;;;22.17;79.33;100625.41;1801311;79;25759;-60
2022/08/23 01:15:05;;;;;;;20.90;5.78;;;;;;;22.20;79.39;100618.96;1806162;79;27337;-58
2022/08/23 01:17:43;;;;;;;23.40;6.08;;;;;;;22.17;79.32;100626.27;1801722;79;25899;-60
2022/08/23 01:20:15;;;;;;;14.28;5.95;;;;;;;22.17;79.36;100624.04;1794613;79;25833;-60
2022/08/23 01:22:57;;;;;;;12.85;5.17;;;;;;;22.13;79.18;100622.27;1798334;79;25823;-58
2022/08/23 01:25:30;;;;;;;28.35;4.97;;;;;;;22.13;79.29;100622.27;1790161;80;26436;-59
2022/08/23 01:27:58;;;;;;;17.17;5.83;;;;;;;22.13;79.27;100625.55;1796092;79;28446;-60
2022/08/23 01:30:31;;;;;;;19.45;7.42;;;;;;;22.14;79.48;100623.95;1777170;79;25728;-59
2022/08/23 01:33:03;;;;;;;25.00;9.60;;;;;;;22.17;79.25;100628.15;1765172;79;25704;-59
2022/08/23 01:35:44;;;;;;;19.17;5.85;;;;;;;22.08;78.75;100626.70;1748428;80;25957;-59
2022/08/23 01:38:13;;;;;;;14.47;5.85;;;;;;;22.02;79.16;100623.79;1742701;81;26027;-59
2022/08/23 01:40:43;;;;;;;14.00;5.75;;;;;;;22.04;79.51;100629.90;1747549;81;27037;-59
2022/08/23 01:43:12;;;;;;;21.60;6.35;;;;;;;22.07;79.63;100625.02;1731880;82;25524;-59
2022/08/23 01:45:41;;;;;;;14.83;5.35;;;;;;;22.10;79.98;100619.95;1751560;81;26111;-60
2022/08/23 01:48:10;;;;;;;27.07;9.28;;;;;;;22.14;80.04;100629.97;1772779;80;25820;-60
2022/08/23 01:50:38;;;;;;;18.67;8.50;;;;;;;22.11;80.35;100639.44;1742777;81;27220;-59
2022/08/23 01:53:06;;;;;;;20.72;9.08;;;;;;;22.04;79.63;100631.78;1742257;80;27549;-59
2022/08/23 01:55:34;;;;;;;33.42;9.05;;;;;;;21.99;79.78;100631.05;1761502;81;25767;-59
2022/08/23 01:58:05;;;;;;;22.00;9.70;;;;;;;21.98;79.85;100636.76;1768458;80;25773;-60
2022/08/23 02:00:38;;;;;;;29.63;9.48;;;;;;;21.89;79.80;100626.05;1799206;79;26595;-60
2022/08/23 02:03:07;;;;;;;20.20;9.53;;;;;;;21.89;79.73;100630.15;1799574;79;33563;-60
2022/08/23 02:05:36;;;;;;;19.17;9.43;;;;;;;21.85;79.32;100634.36;1803846;79;27092;-60
2022/08/23 02:10:54;;;;;;;26.40;7.62;;;;;;;21.58;80.28;100633.58;1796549;79;25862;-60
2022/08/23 02:13:22;;;;;;;32.50;8.53;;;;;;;21.52;80.68;100633.02;1799261;79;26131;-60
2022/08/23 02:15:51;;;;;;;17.67;7.75;;;;;;;21.50;80.78;100635.97;1794971;78;25905;-59
2022/08/23 02:18:20;;;;;;;20.90;7.42;;;;;;;21.47;80.77;100643.77;1795437;77;27548;-60
2022/08/23 02:20:50;;;;;;;23.02;7.30;;;;;;;21.38;80.81;100644.52;1804948;79;25446;-60
2022/08/23 02:23:19;;;;;;;23.05;6.42;;;;;;;21.26;81.60;100645.66;1777987;79;25709;-59
2022/08/23 02:25:46;;;;;;;16.45;6.03;;;;;;;21.23;81.44;100646.09;1799892;79;25772;-59
2022/08/23 02:28:14;;;;;;;30.02;6.80;;;;;;;21.18;81.79;100648.09;1800262;79;25768;-60
2022/08/23 02:30:40;;;;;;;18.90;6.28;;;;;;;21.12;82.20;100648.91;1800042;79;27656;-59
2022/08/23 02:33:08;;;;;;;23.05;6.50;;;;;;;21.18;83.19;100652.20;1783485;79;25647;-60
2022/08/23 02:35:36;;;;;;;19.15;6.25;;;;;;;21.23;82.87;100646.92;1770750;79;25814;-60
2022/08/23 02:38:11;;;;;;;15.48;6.37;;;;;;;21.21;82.57;100650.39;1784228;79;25662;-59
2022/08/23 02:40:41;;;;;;;23.25;5.85;;;;;;;21.13;82.68;100653.33;1792999;79;25426;-60
2022/08/23 02:43:08;;;;;;;14.05;4.75;;;;;;;21.11;82.78;100656.28;1799662;79;28330;-60
2022/08/23 02:45:37;;;;;;;15.95;5.95;;;;;;;21.16;84.61;100660.30;1789950;79;25726;-59
2022/08/23 02:48:06;;;;;;;21.95;6.08;;;;;;;21.12;83.41;100661.22;1771152;80;25739;-60
2022/08/23 02:50:41;;;;;;;10.95;6.08;;;;;;;21.11;83.63;100667.77;1767732;80;25897;-60
2022/08/23 02:53:09;;;;;;;26.45;7.25;;;;;;;21.07;83.26;100671.95;1730171;82;25642;-59
2022/08/23 02:55:35;;;;;;;27.32;5.83;;;;;;;21.01;82.95;100675.53;1745916;81;27617;-61
2022/08/23 02:58:04;;;;;;;16.10;6.08;;;;;;;20.96;83.08;100670.69;1797237;79;26003;-60
2022/08/23 03:00:32;;;;;;;17.25;6.00;;;;;;;20.94;84.37;100677.70;1779891;79;25834;-61
2022/08/23 03:02:59;;;;;;;22.60;5.62;;;;;;;20.90;84.22;100676.96;1769543;80;25766;-61
2022/08/23 03:05:26;;;;;;;18.15;6.45;;;;;;;20.87;84.40;100680.95;1798524;79;25802;-61
2022/08/23 03:07:56;;;;;;;19.37;6.00;;;;;;;20.87;83.99;100681.50;1799796;77;27471;-61
2022/08/23 03:10:23;;;;;;;31.87;5.30;;;;;;;20.85;83.88;100687.69;1798564;79;25763;-61
2022/08/23 03:12:52;;;;;;;27.15;6.42;;;;;;;20.82;84.21;100681.25;1798086;79;25731;-61
2022/08/23 03:15:38;;;;;;;22.22;6.33;;;;;;;20.82;84.68;100686.72;1781522;79;26017;-59
2022/08/23 03:18:11;;;;;;;26.97;7.22;;;;;;;20.83;84.44;100691.14;1766426;79;25277;-60
2022/08/23 03:20:58;;;;;;;11.48;5.08;;;;;;;20.82;84.18;100694.42;1741748;80;28475;-62
2022/08/23 03:23:17;;;;;;;21.90;6.22;;;;;;;20.84;84.16;100700.53;1721015;81;25813;-62
2022/08/23 03:26:10;;;;;;;16.70;5.90;;;;;;;20.79;83.99;100695.68;1753864;81;25868;-60
2022/08/23 03:28:40;;;;;;;19.02;5.37;;;;;;;20.81;84.32;100705.03;1754110;81;25817;-60
2022/08/23 03:31:29;;;;;;;22.05;6.15;;;;;;;20.84;84.23;100713.34;1745455;81;25796;-60
2022/08/23 03:34:00;;;;;;;16.65;6.22;;;;;;;20.87;84.35;100713.77;1747396;81;27688;-61
2022/08/23 03:36:26;;;;;;;17.65;5.65;;;;;;;20.90;84.40;100714.73;1799401;79;25722;-59
2022/08/23 03:38:53;;;;;;;50.70;30.85;;;;;;;20.93;85.04;100727.14;1788677;77;25747;-60
2022/08/23 03:41:21;;;;;;;13.62;6.05;;;;;;;20.90;84.56;100734.38;1799483;79;25798;-60
2022/08/23 03:43:49;;;;;;;14.47;4.95;;;;;;;20.91;84.93;100728.72;1767410;80;25751;-60
2022/08/23 03:46:22;;;;;;;9.13;5.00;;;;;;;20.93;84.54;100723.88;1746424;81;27420;-60
2022/08/23 03:48:58;;;;;;;17.10;5.55;;;;;;;20.97;84.02;100718.86;1727393;81;25829;-59
2022/08/23 03:51:29;;;;;;;16.27;5.75;;;;;;;21.00;84.03;100725.80;1742340;82;25681;-61
2022/08/23 03:53:56;;;;;;;18.42;5.20;;;;;;;21.03;84.72;100723.49;1747278;81;26596;-62
2022/08/23 03:56:29;;;;;;;13.15;5.45;;;;;;;21.05;84.55;100735.58;1726105;80;26558;-60
2022/08/23 03:59:00;;;;;;;17.20;5.33;;;;;;;21.06;84.63;100734.53;1819236;77;27099;-60
2022/08/23 04:01:27;;;;;;;20.08;6.25;;;;;;;21.07;84.24;100732.13;1797675;77;25779;-61
2022/08/23 04:03:58;;;;;;;17.12;5.33;;;;;;;21.06;84.02;100734.53;1803247;79;25723;-61
2022/08/23 04:06:24;;;;;;;15.68;5.15;;;;;;;21.05;83.75;100735.58;1804748;77;26810;-61
2022/08/23 04:08:53;;;;;;;18.07;6.25;;;;;;;21.04;83.84;100737.48;1807030;79;25427;-59
2022/08/23 04:11:22;;;;;;;28.75;11.12;;;;;;;21.07;83.88;100736.22;1805212;79;27444;-59
2022/08/23 04:13:53;;;;;;;20.85;5.65;;;;;;;21.08;84.09;100738.74;1806991;77;25746;-60
2022/08/23 04:16:20;;;;;;;16.10;5.58;;;;;;;21.19;84.88;100740.56;1772447;79;25759;-60
2022/08/23 04:18:48;;;;;;;20.17;5.70;;;;;;;21.24;84.59;100744.36;1733023;80;25867;-60
2022/08/23 04:21:21;;;;;;;16.55;6.12;;;;;;;21.30;83.88;100747.30;1737017;81;25797;-61
2022/08/23 04:23:48;;;;;;;18.37;5.47;;;;;;;21.33;84.10;100735.95;1729906;81;27404;-61
2022/08/23 04:26:15;;;;;;;26.55;6.58;;;;;;;21.36;83.78;100738.28;1728161;81;25742;-61
2022/08/23 04:28:45;;;;;;;23.90;5.87;;;;;;;21.37;83.45;100738.06;1734149;81;26125;-59
2022/08/23 04:31:13;;;;;;;20.32;5.92;;;;;;;21.29;83.50;100747.84;1742466;81;26920;-61
2022/08/23 04:33:41;;;;;;;24.35;5.60;;;;;;;21.29;83.70;100747.84;1734602;81;25753;-60
2022/08/23 04:36:09;;;;;;;17.82;5.05;;;;;;;21.32;83.36;100740.59;1715854;83;27531;-61
2022/08/23 04:38:37;;;;;;;19.12;5.55;;;;;;;21.29;83.73;100747.02;1722378;81;25958;-61
2022/08/23 04:43:52;;;;;;;21.90;6.05;;;;;;;21.32;83.70;100746.58;1740425;81;25883;-61
2022/08/23 04:46:20;;;;;;;14.20;4.78;;;;;;;21.33;83.58;100755.11;1742620;81;27207;-61
2022/08/23 04:48:49;;;;;;;22.45;6.17;;;;;;;21.36;83.67;100754.16;1731114;81;27500;-60
2022/08/23 04:51:17;;;;;;;15.13;5.30;;;;;;;21.40;83.64;100760.05;1674403;84;25652;-61
2022/08/23 04:53:45;;;;;;;12.30;4.85;;;;;;;21.37;83.87;100758.59;1678615;82;25818;-61
2022/08/23 04:56:17;;;;;;;22.17;6.55;;;;;;;21.40;83.60;100763.66;1703910;82;32458;-61
2022/08/23 04:58:45;;;;;;;20.23;5.50;;;;;;;21.41;83.49;100766.71;1709288;82;25758;-61
2022/08/23 05:01:14;;;;;;;17.67;5.03;;;;;;;21.39;83.30;100767.94;1708237;82;28434;-61
2022/08/23 05:03:41;;;;;;;14.50;5.40;;;;;;;21.42;83.29;100777.11;1728954;81;25889;-61
2022/08/23 05:06:09;;;;;;;26.20;6.22;;;;;;;21.45;83.48;100775.34;1739961;80;25554;-61
2022/08/23 05:08:38;;;;;;;17.27;5.17;;;;;;;21.49;83.07;100770.29;1730927;82;26452;-61
2022/08/23 05:11:08;;;;;;;16.93;5.92;;;;;;;21.53;82.88;100781.98;1708125;82;25906;-61
2022/08/23 05:13:37;;;;;;;16.02;6.05;;;;;;;21.56;82.72;100774.70;1798127;79;28419;-61
2022/08/23 05:16:06;;;;;;;25.35;5.28;;;;;;;21.53;82.61;100777.88;1796259;78;26125;-61
2022/08/23 05:18:35;;;;;;;28.10;6.12;;;;;;;21.52;82.70;100778.92;1795973;79;25780;-61
2022/08/23 05:21:03;;;;;;;15.43;5.87;;;;;;;21.61;82.82;100778.21;1779918;79;26561;-61
2022/08/23 05:23:31;;;;;;;13.40;5.47;;;;;;;21.62;82.56;100774.97;1789365;80;25722;-61
2022/08/23 05:26:03;;;;;;;17.50;5.37;;;;;;;21.68;82.67;100785.06;1770850;79;27447;-60
2022/08/23 05:28:34;;;;;;;27.17;5.60;;;;;;;21.77;82.66;100784.34;1761150;79;25748;-62
2022/08/23 05:31:14;;;;;;;19.07;5.72;;;;;;;21.84;82.33;100788.75;1766214;81;25459;-62
2022/08/23 05:33:47;;;;;;;26.95;5.80;;;;;;;21.86;82.09;100787.20;1774000;79;35324;-61
2022/08/23 05:36:18;;;;;;;10.82;5.45;;;;;;;21.91;82.07;100789.30;1807075;79;25465;-61
2022/08/23 05:38:46;;;;;;;23.05;6.35;;;;;;;21.93;81.34;100794.02;1807785;79;27618;-62
2022/08/23 05:41:16;;;;;;;20.80;5.20;;;;;;;21.87;81.03;100787.52;1775375;79;25771;-62
2022/08/23 05:43:43;;;;;;;22.65;5.62;;;;;;;21.86;80.76;100798.15;1743470;80;25699;-62
2022/08/23 05:46:16;;;;;;;18.20;5.47;;;;;;;21.83;80.95;100789.80;1774854;79;27848;-61
2022/08/23 05:48:48;;;;;;;20.50;5.70;;;;;;;21.80;80.88;100788.02;1787085;79;26235;-62
2022/08/23 05:51:30;;;;;;;21.87;6.33;;;;;;;21.78;80.88;100792.88;1807856;79;27452;-62
2022/08/23 05:54:06;;;;;;;20.68;6.03;;;;;;;21.81;80.83;100793.81;1803468;78;25770;-62
2022/08/23 05:56:45;;;;;;;19.32;6.20;;;;;;;21.89;80.95;100791.72;1779270;80;25439;-62
2022/08/23 05:59:16;;;;;;;18.00;5.47;;;;;;;21.88;80.87;100799.61;1776361;79;25481;-60
2022/08/23 06:01:43;;;;;;;16.97;6.35;;;;;;;;;;1804185;79;25747;-60
2022/08/23 06:04:17;;;;;;;22.87;6.17;;;;;;;22.00;80.32;100797.62;1798165;79;27507;-60
2022/08/23 06:06:45;;;;;;;20.82;6.12;;;;;;;22.04;80.40;100801.60;1790910;79;25426;-60
2022/08/23 06:09:15;;;;;;;14.95;5.40;;;;;;;22.07;79.87;100798.45;1795866;79;25501;-61
2022/08/23 06:11:46;;;;;;;20.37;5.37;;;;;;;22.12;79.75;100799.19;1800232;79;26586;-61
2022/08/23 06:14:14;;;;;;;20.12;6.05;;;;;;;22.17;79.46;100803.48;1771341;79;25787;-61
2022/08/23 06:16:48;;;;;;;24.57;5.78;;;;;;;22.29;79.49;100801.80;1746754;81;28168;-61
2022/08/23 06:19:18;;;;;;;21.10;5.53;;;;;;;22.41;78.71;100804.75;1739580;80;25466;-61
2022/08/23 06:22:03;;;;;;;15.83;5.67;;;;;;;22.43;78.29;100809.50;1749349;80;25657;-60
2022/08/23 06:24:35;;;;;;;24.67;5.90;;;;;;;22.61;78.34;100807.97;1750909;80;25717;-59
2022/08/23 06:27:04;;;;;;;22.37;6.03;;;;;;;22.74;77.85;100809.83;1740209;81;25970;-60
2022/08/23 06:29:33;;;;;;;25.52;6.12;;;;;;;22.85;77.45;100816.53;1742220;80;25961;-61
2022/08/23 06:32:19;;;;;;;25.48;7.35;;;;;;;23.00;77.06;100818.47;1738982;79;25938;-60
2022/08/23 06:34:47;;;;;;;48.30;7.35;;;;;;;23.12;76.26;100820.84;1743557;79;25717;-61
2022/08/23 06:37:19;;;;;;;31.77;6.80;;;;;;;23.23;76.04;100820.70;1741329;80;25822;-60
2022/08/23 06:40:01;;;;;;;18.75;7.08;;;;;;;23.41;75.75;100817.76;1719347;81;27322;-61
2022/08/23 06:42:39;;;;;;;26.68;7.12;;;;;;;23.55;75.28;100822.63;1743180;81;27456;-62
2022/08/23 06:45:10;;;;;;;27.35;6.08;;;;;;;23.58;74.34;100823.58;1768518;80;25775;-61
2022/08/23 06:47:42;;;;;;;17.07;6.03;;;;;;;23.69;73.93;100826.98;1767290;80;25755;-62
2022/08/23 06:50:10;;;;;;;21.33;6.00;;;;;;;23.75;73.61;100824.72;1799470;79;25723;-59
2022/08/23 06:52:49;;;;;;;35.35;6.50;;;;;;;23.91;73.55;100821.95;1795186;79;25698;-62
2022/08/23 06:55:18;;;;;;;32.93;6.95;;;;;;;24.01;72.83;100818.73;1797387;79;28452;-61
2022/08/23 06:57:58;;;;;;;27.93;6.92;;;;;;;24.05;72.83;100822.72;1797993;79;25676;-61
2022/08/23 07:00:38;;;;;;;25.10;6.05;;;;;;;24.10;72.28;100832.18;1796559;79;25751;-60
2022/08/23 07:03:10;;;;;;;27.40;7.00;;;;;;;24.13;71.94;100830.37;1801347;79;25682;-60
2022/08/23 07:05:55;;;;;;;32.93;6.92;;;;;;;24.19;71.83;100833.06;1800026;79;25769;-60
2022/08/23 07:08:24;;;;;;;24.50;5.50;;;;;;;24.25;71.76;100829.09;1799807;79;27581;-60
2022/08/23 07:10:51;;;;;;;40.40;6.62;;;;;;;24.36;71.83;100826.44;1797858;79;26077;-60
2022/08/23 07:13:18;;;;;;;32.20;6.65;;;;;;;24.49;71.51;100821.88;1774882;79;25815;-61
2022/08/23 07:15:45;;;;;;;40.73;6.47;;;;;;;24.62;71.27;100824.47;1774356;80;26744;-61
2022/08/23 07:18:14;;;;;;;25.32;6.00;;;;;;;24.72;71.00;100818.48;1774550;80;25753;-61
2022/08/23 07:20:41;;;;;;;25.05;5.72;;;;;;;24.84;70.96;100816.63;1774692;80;27472;-61
2022/08/23 07:23:08;;;;;;;28.57;5.22;;;;;;;24.97;70.58;100817.54;1801191;77;25453;-60
2022/08/23 07:25:36;;;;;;;30.45;6.80;;;;;;;25.03;70.00;100811.09;1803917;79;25684;-61
2022/08/23 07:28:05;;;;;;;37.48;6.87;;;;;;;25.08;69.80;100815.39;1777506;79;25818;-61
2022/08/23 07:30:32;;;;;;;47.65;7.03;;;;;;;25.09;69.09;100814.84;1800745;79;25684;-61
2022/08/23 07:33:00;;;;;;;37.98;7.80;;;;;;;25.07;68.89;100819.73;1799107;79;28243;-62
2022/08/23 07:35:28;;;;;;;39.65;5.67;;;;;;;25.09;68.80;100823.09;1799027;79;25897;-61
2022/08/23 07:37:57;;;;;;;41.08;6.37;;;;;;;25.15;68.70;100827.14;1800257;79;25752;-61
2022/08/23 07:40:26;;;;;;;36.73;6.28;;;;;;;25.22;68.47;100833.09;1802930;78;25842;-60
2022/08/23 07:42:57;;;;;;;27.17;6.03;;;;;;;25.30;68.02;100835.00;1806029;78;25848;-62
2022/08/23 07:45:26;;;;;;;35.70;6.03;;;;;;;25.29;67.37;100840.19;1802464;78;45632;-61
2022/08/23 07:47:55;;;;;;;29.05;5.12;;;;;;;25.20;67.34;100834.70;1804602;79;25721;-61
2022/08/23 07:50:24;;;;;;;36.85;8.00;;;;;;;25.28;67.93;100833.00;1803015;79;25730;-61
2022/08/23 07:52:51;;;;;;;42.43;7.45;;;;;;;25.42;67.80;100833.69;1787137;79;26714;-61
2022/08/23 07:55:18;;;;;;;57.38;7.17;;;;;;;25.53;67.92;100831.22;1809021;78;25670;-62
2022/08/23 07:58:02;;;;;;;49.93;7.28;;;;;;;25.61;67.64;100829.50;1760938;81;27497;-61
2022/08/23 08:00:40;;;;;;;45.50;7.00;;;;;;;25.71;67.41;100828.91;1770972;78;25849;-61
2022/08/23 08:03:11;;;;;;;52.45;7.70;;;;;;;25.82;66.87;100837.75;1780936;79;25806;-60
2022/08/23 08:05:40;;;;;;;47.58;8.18;;;;;;;25.85;66.07;100835.05;1797768;79;26471;-61
2022/08/23 08:08:09;;;;;;;49.23;7.78;;;;;;;26.02;66.42;100842.10;1795101;79;25787;-61
2022/08/23 08:10:40;;;;;;;47.55;7.47;;;;;;;26.21;66.57;100839.58;1799180;79;27413;-60
2022/08/23 08:13:09;;;;;;;48.15;7.03;;;;;;;26.41;65.08;100831.45;1801017;79;25797;-61
2022/08/23 08:15:40;;;;;;;41.55;7.30;;;;;;;26.57;64.91;100827.13;1799781;78;25785;-61
2022/08/23 08:18:08;;;;;;;61.18;9.13;;;;;;;26.79;65.04;100830.13;1777237;79;25908;-61
2022/08/23 08:20:44;;;;;;;62.50;7.87;;;;;;;27.05;63.26;100829.83;1741641;78;25532;-62
2022/08/23 08:23:29;;;;;;;65.65;9.53;;;;;;;27.21;61.93;100829.04;1795139;78;27466;-62
2022/08/23 08:26:07;;;;;;;69.60;9.65;;;;;;;27.45;61.63;100828.95;1798397;78;25724;-62
2022/08/23 08:28:36;;;;;;;60.70;8.60;;;;;;;27.67;60.89;100829.08;1777300;79;25586;-62
2022/08/23 08:31:04;;;;;;;94.40;11.18;;;;;;;27.80;60.21;100827.38;1798928;79;25744;-62
2022/08/23 08:33:33;;;;;;;65.80;9.13;;;;;;;28.02;60.87;100824.41;1799430;79;25769;-61
2022/08/23 08:36:01;;;;;;;58.15;8.60;;;;;;;28.35;59.52;100829.63;1798229;79;27678;-61
2022/08/23 08:38:29;;;;;;;83.12;10.55;;;;;;;28.52;58.16;100821.31;1797631;79;25805;-62
2022/08/23 08:41:17;;;;;;;80.92;10.53;;;;;;;28.60;58.32;100831.94;1798879;79;25798;-61
2022/08/23 08:44:09;;;;;;;77.47;11.05;;;;;;;28.66;57.39;100828.13;1791287;79;25750;-62
2022/08/23 08:46:47;;;;;;;91.65;10.55;;;;;;;28.72;56.90;100827.16;1788835;78;25778;-62
2022/08/23 08:49:59;;;;;;;81.53;11.53;;;;;;;28.78;56.29;100825.27;1778798;79;28293;-61
2022/08/23 08:52:37;;;;;;;78.40;11.20;;;;;;;28.81;55.74;100825.33;1771746;80;25915;-61
2022/08/23 08:55:20;;;;;;;76.12;11.88;;;;;;;28.94;55.98;100829.63;1794703;79;25856;-60
2022/08/23 08:57:49;;;;;;;98.12;11.45;;;;;;;29.04;54.26;100827.81;1776974;79;25958;-60
2022/08/23 09:00:34;;;;;;;99.00;12.55;;;;;;;29.16;55.67;100819.92;1803577;78;25733;-61
2022/08/23 09:03:05;;;;;;;108.07;12.13;;;;;;;29.34;55.84;100822.91;1803390;79;28963;-61
2022/08/23 09:05:38;;;;;;;84.07;12.40;;;;;;;29.55;55.60;100823.11;1776756;79;25898;-61
2022/08/23 09:08:35;;;;;;;85.60;10.65;;;;;;;29.72;54.50;100823.83;1803410;79;25864;-61
2022/08/23 09:11:44;;;;;;;78.85;10.93;;;;;;;29.87;54.79;100819.50;1733651;82;26266;-61
2022/08/23 09:14:41;;;;;;;83.45;11.10;;;;;;;30.08;54.25;100819.13;1734285;82;26133;-61
2022/08/23 09:17:45;;;;;;;90.22;12.13;;;;;;;30.38;53.47;100819.06;1696428;84;27536;-61
2022/08/23 09:20:16;;;;;;;103.45;11.68;;;;;;;30.56;53.46;100814.48;1686885;84;25955;-61
2022/08/23 09:22:50;;;;;;;84.62;11.55;;;;;;;30.88;52.05;100808.51;1671625;85;25789;-62
2022/08/23 09:25:21;;;;;;;88.65;11.85;;;;;;;31.15;51.88;100816.70;1647634;86;26044;-62
2022/08/23 09:27:56;;;;;;;92.82;13.13;;;;;;;31.49;51.43;100807.00;1646310;87;28932;-62
2022/08/23 09:30:47;;;;;;;94.87;12.25;;;;;;;31.81;50.67;100806.77;1647556;87;27494;-62
2022/08/23 09:33:22;;;;;;;74.92;11.57;;;;;;;32.13;49.73;100807.58;1647194;87;25798;-61
2022/08/23 09:36:27;;;;;;;96.50;13.53;;;;;;;32.54;48.34;100806.13;1647299;87;25898;-62
2022/08/23 09:39:04;;;;;;;98.72;12.90;;;;;;;32.94;47.53;100810.45;1647608;87;26714;-62
2022/08/23 09:41:40;;;;;;;99.65;13.22;;;;;;;33.44;45.74;100807.64;1672199;82;25838;-62
2022/08/23 09:44:15;;;;;;;109.00;13.80;;;;;;;33.99;45.72;100806.66;1729873;82;27640;-62
2022/08/23 09:46:54;;;;;;;84.80;14.43;;;;;;;34.51;43.14;100806.16;1729143;82;28574;-62
2022/08/23 09:49:28;;;;;;;78.07;11.10;;;;;;;34.97;42.96;100803.36;1734352;81;25642;-62
2022/08/23 09:52:20;;;;;;;104.95;12.15;;;;;;;35.29;41.02;100802.61;1739097;82;26790;-61
2022/08/23 09:55:02;;;;;;;97.33;12.20;;;;;;;35.61;41.55;100802.41;1750169;80;26131;-63
2022/08/23 09:57:34;;;;;;;105.83;11.97;;;;;;;35.93;40.74;100798.53;1759209;81;28672;-62
2022/08/23 10:00:29;;;;;;;73.65;11.25;;;;;;;36.35;40.79;100800.84;1758444;81;25407;-62
2022/08/23 10:03:22;;;;;;;94.90;13.35;;;;;;;36.78;38.44;100803.34;1754893;80;25882;-62
2022/08/23 10:05:59;;;;;;;79.20;10.72;;;;;;;37.18;38.55;100799.11;1759144;81;25813;-62
2022/08/23 10:08:39;;;;;;;102.47;10.82;;;;;;;37.60;38.04;100802.63;1758980;81;25829;-62
2022/08/23 10:11:27;;;;;;;97.12;11.50;;;;;;;37.90;37.14;100800.19;1744438;80;27650;-62
2022/08/23 10:13:55;;;;;;;113.75;13.32;;;;;;;38.19;35.58;100798.84;1728523;83;25459;-62
2022/08/23 10:17:07;;;;;;;92.50;11.08;;;;;;;38.39;35.06;100789.63;1728679;82;25820;-62
2022/08/23 10:19:45;;;;;;;86.25;12.28;;;;;;;38.63;34.21;100790.02;1735056;82;25998;-61
2022/08/23 10:22:31;;;;;;;85.17;12.18;;;;;;;38.74;31.99;100785.50;1747886;81;25460;-61
2022/08/23 10:25:22;;;;;;;104.43;14.25;;;;;;;38.34;32.29;100789.20;1743028;81;28167;-61
2022/08/23 10:31:23;;;;;;;95.57;12.98;;;;;;;38.00;32.85;100785.06;1716449;82;25786;-62
2022/08/23 10:34:25;;;;;;;95.87;12.37;;;;;;;37.93;33.42;100789.73;1740824;82;25971;-62
2022/08/23 10:37:32;;;;;;;86.12;11.35;;;;;;;38.26;34.34;100787.16;1741212;81;26014;-62
2022/08/23 10:40:27;;;;;;;92.70;12.15;;;;;;;38.89;32.81;100788.45;1740980;81;27549;-62
2022/08/23 10:43:19;;;;;;;100.95;14.40;;;;;;;39.46;31.80;100788.90;1740763;82;25781;-62
2022/08/23 10:45:46;;;;;;;95.83;13.45;;;;;;;39.87;31.53;100783.88;1741222;81;25749;-61
2022/08/23 10:48:28;;;;;;;89.22;11.63;;;;;;;40.21;30.89;100781.52;1716670;82;25852;-62
2022/08/23 10:51:11;;;;;;;94.47;13.85;;;;;;;40.59;30.69;100786.05;1741038;81;25537;-63
2022/08/23 10:53:59;;;;;;;106.83;13.58;;;;;;;40.71;29.48;100785.34;1743025;81;27549;-63
2022/08/23 10:56:28;;;;;;;108.95;13.72;;;;;;;40.87;29.56;100785.58;1808176;79;25988;-63
2022/08/23 10:59:13;;;;;;;63.85;9.60;;;;;;;41.29;29.58;100782.76;1805975;79;26444;-63
2022/08/23 11:02:40;;;;;;;82.22;11.12;;;;;;;41.61;28.02;100786.80;1805856;78;25974;-61
2022/08/23 11:05:35;;;;;;;105.17;13.10;;;;;;;41.91;27.40;100784.45;1835320;78;33436;-62
2022/08/23 11:08:14;;;;;;;89.95;10.85;;;;;;;41.74;28.18;100780.59;1835427;78;25900;-63
2022/08/23 11:10:55;;;;;;;84.17;11.50;;;;;;;41.99;27.96;100779.28;1827434;77;25752;-63
2022/08/23 11:13:27;;;;;;;114.50;14.18;;;;;;;42.16;26.68;100780.23;1836663;78;25748;-62
2022/08/23 11:16:16;;;;;;;99.60;12.80;;;;;;;42.00;26.80;100778.67;1836464;78;27172;-63
2022/08/23 11:18:48;;;;;;;104.07;13.30;;;;;;;42.20;26.71;100769.85;1834930;77;25807;-63
2022/08/23 11:21:32;;;;;;;111.68;14.75;;;;;;;42.44;25.87;100770.47;1814098;79;27626;-62
2022/08/23 11:24:03;;;;;;;145.17;16.25;;;;;;;42.39;26.77;100771.53;1823069;78;25813;-62
2022/08/23 11:26:44;;;;;;;133.47;16.42;;;;;;;42.62;26.49;100771.63;1836518;78;25526;-62
2022/08/23 11:29:28;;;;;;;96.82;15.03;;;;;;;42.60;25.75;100771.16;1836640;78;25831;-62
2022/08/23 11:32:38;;;;;;;116.77;16.05;;;;;;;42.65;25.25;100767.50;1827030;78;25799;-62
2022/08/23 11:35:34;;;;;;;90.00;13.00;;;;;;;42.53;24.66;100764.70;1835930;78;27610;-63
2022/08/23 11:38:03;;;;;;;104.63;14.78;;;;;;;42.12;25.60;100761.75;1788635;79;25832;-63
2022/08/23 11:40:54;;;;;;;110.50;13.18;;;;;;;42.21;26.00;100760.20;1806993;79;25755;-65
2022/08/23 11:43:38;;;;;;;100.05;14.05;;;;;;;42.65;25.47;100758.20;1806622;79;25815;-63
2022/08/23 11:46:29;;;;;;;100.58;13.70;;;;;;;42.99;25.40;100756.83;1806598;79;25761;-62
2022/08/23 11:49:21;;;;;;;117.80;13.50;;;;;;;43.22;24.61;100759.14;1806148;79;28277;-62
2022/08/23 11:52:25;;;;;;;116.45;16.48;;;;;;;42.48;25.03;100756.45;1805164;79;25792;-59
2022/08/23 11:55:16;;;;;;;89.77;14.25;;;;;;;42.16;25.37;100761.26;1795543;79;25779;-62
2022/08/23 11:57:57;;;;;;;110.08;14.47;;;;;;;41.83;26.04;100752.83;1782869;78;25803;-63
2022/08/23 12:00:56;;;;;;;85.87;13.20;;;;;;;42.26;25.96;100751.50;1776473;79;25875;-63
2022/08/23 12:03:33;;;;;;;84.10;13.58;;;;;;;42.75;25.44;100745.59;1794256;78;27709;-63
2022/08/23 12:06:08;;;;;;;95.20;13.38;;;;;;;43.13;24.99;100744.29;1780773;79;25707;-63